Terminal Aerodrome Forecast
Issued by NWS

Home | Current Version | Previous Version | Text Only | Print | Product List | Glossary On
Versions: 1 2 3 4 5 6 7 8 9 10 11 12 13 14 15
945
FTUS45 KVEF 252320
TAFDAG
TAF
KDAG 252320Z 2600/2624 26017G27KT P6SM FEW100
     FM260900 26012KT P6SM FEW100 BKN250
     FM262200 25018G28KT P6SM SCT100 BKN250=

USA.gov is the U.S. government's official web portal to all federal, state and local government web resources and services.